Time;durP1;ratioP1;P1;durP2;ratioP2;P2;SDS_P1;SDS_P2;PMS_P1;PMS_P2;Temp;Humidity;BMP_temperature;BMP_pressure;BME280_temperature;BME280_humidity;BME280_pressure;Samples;Min_cycle;Max_cycle;Signal;HPM_P1;HPM_P2
2023/05/16 00:00:40;;;;;;;18.20;2.47;;;;;;;8.84;100.00;101984.59;5057884;28;20052;-47
2023/05/16 00:03:06;;;;;;;28.02;3.30;;;;;;;8.85;100.00;101992.53;5060352;28;20388;-45
2023/05/16 00:05:31;;;;;;;23.45;2.13;;;;;;;8.79;100.00;101987.72;5054974;28;20067;-44
2023/05/16 00:07:57;;;;;;;21.83;2.67;;;;;;;8.72;100.00;101987.44;5051753;28;20104;-45
2023/05/16 00:10:22;;;;;;;21.60;2.35;;;;;;;8.74;100.00;101985.47;5058496;28;20029;-42
2023/05/16 00:12:50;;;;;;;15.85;2.25;;;;;;;8.77;100.00;101981.66;5050989;28;20509;-44
2023/05/16 00:15:16;;;;;;;28.75;2.75;;;;;;;8.77;100.00;101989.72;5050080;28;20029;-42
2023/05/16 00:17:45;;;;;;;25.88;2.83;;;;;;;8.72;100.00;101984.75;5052352;28;20020;-44
2023/05/16 00:20:10;;;;;;;;;;;;;;;8.69;100.00;101994.91;5051507;28;20028;-46
2023/05/16 00:22:36;;;;;;;25.13;2.38;;;;;;;8.65;100.00;101991.69;5063025;28;20266;-43
2023/05/16 00:25:02;;;;;;;16.40;2.08;;;;;;;8.66;100.00;101995.19;5066748;28;20442;-48
2023/05/16 00:27:27;;;;;;;23.88;3.13;;;;;;;8.68;100.00;101982.50;5070762;28;20067;-44
2023/05/16 00:29:53;;;;;;;20.00;2.50;;;;;;;8.65;100.00;101988.16;5057345;28;20032;-44
2023/05/16 00:32:18;;;;;;;22.65;3.72;;;;;;;8.66;100.00;101992.50;5065388;28;20028;-42
2023/05/16 00:34:43;;;;;;;27.33;2.55;;;;;;;8.72;100.00;101991.97;5053907;28;20132;-44
2023/05/16 00:37:09;;;;;;;18.00;1.90;;;;;;;8.80;100.00;101994.78;5050200;28;20029;-45
2023/05/16 00:39:34;;;;;;;19.33;2.00;;;;;;;8.87;100.00;101995.91;5050188;28;20037;-46
2023/05/16 00:42:00;;;;;;;18.52;2.25;;;;;;;8.92;100.00;101992.78;5054923;28;20026;-47
2023/05/16 00:44:25;;;;;;;17.17;2.00;;;;;;;8.92;100.00;101990.94;5067418;28;20052;-44
2023/05/16 00:46:51;;;;;;;13.63;1.73;;;;;;;8.93;100.00;101995.34;5055201;28;20091;-43
2023/05/16 00:49:16;;;;;;;24.58;2.53;;;;;;;8.89;100.00;101985.88;5063403;28;20119;-45
2023/05/16 00:51:42;;;;;;;21.90;2.95;;;;;;;8.88;100.00;101991.41;5064757;28;20029;-43
2023/05/16 00:54:07;;;;;;;20.75;2.45;;;;;;;8.85;100.00;101986.31;5051364;28;20112;-44
2023/05/16 00:56:33;;;;;;;19.17;2.55;;;;;;;8.83;100.00;101988.28;5064270;28;20036;-45
2023/05/16 00:58:59;;;;;;;20.65;2.15;;;;;;;8.84;100.00;101989.97;5066417;28;20471;-45
2023/05/16 01:01:26;;;;;;;23.77;2.67;;;;;;;8.72;100.00;101982.06;5048729;28;20041;-46
2023/05/16 01:03:51;;;;;;;14.90;2.10;;;;;;;8.71;100.00;101979.53;5069225;28;20049;-41
2023/05/16 01:06:17;;;;;;;18.70;1.83;;;;;;;8.67;100.00;101986.19;5068596;28;20536;-42
2023/05/16 01:08:42;;;;;;;21.25;2.15;;;;;;;8.65;100.00;101985.47;5059566;28;20343;-45
2023/05/16 01:11:51;;;;;;;23.48;2.67;;;;;;;8.66;100.00;101988.03;5050196;28;20076;-45
2023/05/16 01:14:21;;;;;;;20.20;2.10;;;;;;;8.66;100.00;101984.47;5080065;28;20389;-45
2023/05/16 01:17:01;;;;;;;17.00;1.58;;;;;;;8.65;100.00;101989.00;5084565;28;20090;-46
2023/05/16 01:19:56;;;;;;;17.83;2.28;;;;;;;8.68;100.00;101986.03;5054203;28;20152;-45
2023/05/16 01:22:36;;;;;;;19.13;2.25;;;;;;;8.75;100.00;101986.31;5055007;28;20020;-43
2023/05/16 01:25:15;;;;;;;17.55;2.40;;;;;;;8.74;100.00;101990.84;5061428;28;20090;-43
2023/05/16 01:27:40;;;;;;;22.83;2.75;;;;;;;8.79;100.00;101987.72;5063876;28;20456;-43
2023/05/16 01:30:17;;;;;;;28.55;3.03;;;;;;;8.77;100.00;101998.59;5069544;28;20112;-46
2023/05/16 01:32:42;;;;;;;21.60;2.70;;;;;;;8.82;100.00;101990.13;5063983;28;20033;-45
2023/05/16 01:35:09;;;;;;;27.90;2.97;;;;;;;8.79;100.00;101988.59;5066273;28;20032;-44
2023/05/16 01:37:45;;;;;;;19.13;2.30;;;;;;;8.82;100.00;101995.50;5057196;28;20534;-44
2023/05/16 01:40:52;;;;;;;15.75;1.70;;;;;;;8.83;100.00;101999.03;5064702;28;20036;-47
2023/05/16 01:43:27;;;;;;;19.48;2.38;;;;;;;8.81;100.00;101999.16;5065619;28;20036;-46
2023/05/16 01:45:59;;;;;;;17.90;2.45;;;;;;;8.85;100.00;101997.91;5059001;28;20394;-46
2023/05/16 01:48:30;;;;;;;23.35;2.17;;;;;;;8.83;100.00;102002.56;5062963;28;20128;-44
2023/05/16 01:50:56;;;;;;;19.38;2.33;;;;;;;8.82;100.00;101997.31;5064677;28;20436;-44
2023/05/16 01:53:27;;;;;;;24.02;2.22;;;;;;;8.79;100.00;101998.44;5064368;28;20044;-48
2023/05/16 01:55:55;;;;;;;15.50;2.65;;;;;;;8.87;100.00;102001.25;5058672;28;20032;-44
2023/05/16 01:58:24;;;;;;;20.92;3.28;;;;;;;8.85;100.00;101997.91;5041869;28;20030;-41
2023/05/16 02:00:52;;;;;;;14.73;2.35;;;;;;;8.80;100.00;101997.47;5066431;28;20049;-43
2023/05/16 02:03:17;;;;;;;15.30;2.03;;;;;;;8.76;100.00;101998.72;5057515;28;20055;-45
2023/05/16 02:05:42;;;;;;;19.38;2.13;;;;;;;8.67;100.00;102000.44;5064154;28;20025;-48
2023/05/16 02:08:08;;;;;;;26.67;2.88;;;;;;;8.68;100.00;102012.00;5056106;28;20493;-42
2023/05/16 02:10:33;;;;;;;21.77;2.70;;;;;;;8.70;100.00;102010.03;5062688;28;20029;-43
2023/05/16 02:12:59;;;;;;;26.67;2.25;;;;;;;8.69;100.00;102008.31;5053631;28;20029;-43
2023/05/16 02:15:24;;;;;;;21.98;1.98;;;;;;;8.75;100.00;102007.78;5069706;28;20055;-44
2023/05/16 02:17:50;;;;;;;20.70;2.50;;;;;;;8.71;100.00;102004.53;5073111;28;20035;-47
2023/05/16 02:20:15;;;;;;;26.52;2.03;;;;;;;8.68;100.00;102006.66;5073213;28;20090;-48
2023/05/16 02:22:43;;;;;;;27.08;1.98;;;;;;;8.67;100.00;102004.97;5073326;28;20498;-44
2023/05/16 02:25:09;;;;;;;21.43;2.10;;;;;;;8.66;100.00;102005.94;5065288;28;20040;-45
2023/05/16 02:27:34;;;;;;;25.92;2.05;;;;;;;8.62;100.00;102008.06;5070740;28;20645;-42
2023/05/16 02:30:00;;;;;;;19.10;2.72;;;;;;;8.61;100.00;102016.25;5071586;28;20372;-42
2023/05/16 02:32:25;;;;;;;17.42;2.15;;;;;;;8.62;100.00;102016.13;5055038;28;20029;-45
2023/05/16 02:34:51;;;;;;;11.80;2.17;;;;;;;8.60;100.00;102019.94;5053010;28;20029;-44
2023/05/16 02:37:16;;;;;;;24.58;2.53;;;;;;;8.61;100.00;102018.94;5055584;28;20055;-43
2023/05/16 02:39:41;;;;;;;20.63;2.95;;;;;;;8.62;100.00;102004.53;5072830;28;20078;-42
2023/05/16 02:42:07;;;;;;;27.15;3.33;;;;;;;8.63;100.00;102015.13;5071811;28;20035;-43
2023/05/16 02:44:33;;;;;;;24.30;2.22;;;;;;;8.62;100.00;102016.13;5070398;28;20082;-41
2023/05/16 02:46:58;;;;;;;29.40;2.47;;;;;;;8.66;100.00;102005.94;5053102;28;20029;-42
2023/05/16 02:49:24;;;;;;;21.48;3.17;;;;;;;8.64;100.00;102013.31;5053011;28;20033;-44
2023/05/16 02:51:51;;;;;;;14.70;2.15;;;;;;;8.69;100.00;102024.44;5053920;28;20138;-43
2023/05/16 02:54:17;;;;;;;20.33;2.13;;;;;;;8.65;100.00;102017.66;5064289;28;20045;-47
2023/05/16 02:56:43;;;;;;;24.23;2.20;;;;;;;8.59;100.00;102015.56;5071770;28;20025;-45
2023/05/16 02:59:08;;;;;;;14.30;2.08;;;;;;;8.57;100.00;102015.69;5070607;28;20051;-43
2023/05/16 03:01:33;;;;;;;16.02;2.20;;;;;;;8.49;100.00;102011.00;5052494;28;20116;-42
2023/05/16 03:03:59;;;;;;;18.80;2.20;;;;;;;8.46;100.00;102019.34;5052945;28;20032;-44
2023/05/16 03:06:25;;;;;;;22.33;2.35;;;;;;;8.42;100.00;102022.44;5068872;28;20438;-47
2023/05/16 03:08:50;;;;;;;18.05;2.40;;;;;;;8.37;100.00;102025.50;5062259;28;20028;-42
2023/05/16 03:11:19;;;;;;;18.58;1.90;;;;;;;8.44;100.00;102026.69;5068558;28;20035;-45
2023/05/16 03:13:45;;;;;;;11.60;1.85;;;;;;;8.41;100.00;102021.59;5070543;28;20123;-45
2023/05/16 03:16:10;;;;;;;16.70;2.30;;;;;;;8.51;100.00;102022.47;5070290;28;20447;-45
2023/05/16 03:18:35;;;;;;;21.65;2.72;;;;;;;8.58;100.00;102022.72;5072527;28;20021;-46
2023/05/16 03:21:01;;;;;;;23.10;2.25;;;;;;;8.62;100.00;102023.31;5066597;28;20024;-43
2023/05/16 03:23:27;;;;;;;30.48;4.03;;;;;;;8.61;100.00;102030.53;5063388;28;20025;-41
2023/05/16 03:25:53;;;;;;;18.08;1.98;;;;;;;8.65;100.00;102031.09;5063348;28;20115;-44
2023/05/16 03:28:18;;;;;;;30.58;2.97;;;;;;;8.68;100.00;102028.97;5060228;28;20185;-44
2023/05/16 03:30:43;;;;;;;10.57;1.95;;;;;;;8.71;100.00;102035.88;5072263;28;20021;-42
2023/05/16 03:33:09;;;;;;;19.00;2.10;;;;;;;8.76;100.00;102041.69;5069979;28;20024;-41
2023/05/16 03:35:36;;;;;;;21.70;1.98;;;;;;;8.78;100.00;102039.72;5060781;28;20028;-44
2023/05/16 03:38:02;;;;;;;14.63;2.13;;;;;;;8.75;100.00;102037.31;5067696;28;20037;-46
2023/05/16 03:40:30;;;;;;;22.70;2.15;;;;;;;8.70;100.00;102032.34;5068268;28;20044;-45
2023/05/16 03:42:55;;;;;;;15.30;2.22;;;;;;;8.68;100.00;102045.06;5056058;28;20094;-45
2023/05/16 03:45:21;;;;;;;11.05;1.23;;;;;;;8.63;100.00;102041.09;5069957;28;20032;-47
2023/05/16 03:47:48;;;;;;;11.98;1.58;;;;;;;8.56;100.00;102044.34;5060023;28;20382;-45
2023/05/16 03:50:13;;;;;;;15.70;2.23;;;;;;;8.61;100.00;102043.06;5061103;28;20020;-46
2023/05/16 03:52:38;;;;;;;16.25;1.73;;;;;;;8.61;100.00;102043.94;5050627;28;20029;-45
2023/05/16 03:55:05;;;;;;;11.20;1.45;;;;;;;8.64;100.00;102040.13;5065950;28;20040;-43
2023/05/16 03:57:31;;;;;;;16.45;1.77;;;;;;;8.71;100.00;102038.56;5066254;28;20025;-44
2023/05/16 03:59:56;;;;;;;16.05;2.67;;;;;;;8.75;100.00;102048.03;5060080;28;20441;-48
2023/05/16 04:02:22;;;;;;;11.63;1.13;;;;;;;8.81;100.00;102052.00;5068648;28;20040;-45
2023/05/16 04:04:47;;;;;;;15.68;2.78;;;;;;;8.87;100.00;102054.97;5061297;28;20073;-45
2023/05/16 04:07:13;;;;;;;14.70;1.80;;;;;;;8.86;100.00;102047.06;5067530;28;20036;-43
2023/05/16 04:09:38;;;;;;;16.23;1.38;;;;;;;8.83;100.00;102053.56;5061073;28;20386;-46
2023/05/16 04:12:04;;;;;;;21.63;1.45;;;;;;;8.79;100.00;102049.44;5052462;28;20028;-45
2023/05/16 04:14:29;;;;;;;6.07;1.50;;;;;;;8.78;100.00;102055.81;5061003;28;20598;-44
2023/05/16 04:16:55;;;;;;;17.00;1.65;;;;;;;8.77;100.00;102048.75;5067349;28;20194;-43
2023/05/16 04:19:20;;;;;;;16.30;1.65;;;;;;;8.79;100.00;102053.00;5062631;28;20477;-42
2023/05/16 04:21:45;;;;;;;17.70;2.05;;;;;;;8.85;100.00;102056.13;5063325;28;20035;-47
2023/05/16 04:24:11;;;;;;;12.98;1.65;;;;;;;8.90;100.00;102051.13;5049326;28;20494;-44
2023/05/16 04:26:36;;;;;;;17.27;2.00;;;;;;;9.00;100.00;102060.91;5062994;28;20032;-45
2023/05/16 04:29:02;;;;;;;12.63;1.73;;;;;;;9.15;100.00;102055.09;5057081;28;20025;-45
2023/05/16 04:31:28;;;;;;;13.95;1.80;;;;;;;9.19;100.00;102059.22;5050092;28;20162;-45
2023/05/16 04:33:53;;;;;;;22.05;2.85;;;;;;;9.19;100.00;102054.69;5051359;28;20100;-46
2023/05/16 04:36:19;;;;;;;12.82;1.63;;;;;;;9.21;100.00;102067.94;5055926;28;20024;-43
2023/05/16 04:38:46;;;;;;;13.50;2.72;;;;;;;9.23;100.00;102065.97;5060820;28;20028;-42
2023/05/16 04:41:12;;;;;;;12.27;2.20;;;;;;;9.16;100.00;102062.16;5064736;28;20043;-43
2023/05/16 04:43:37;;;;;;;13.32;1.55;;;;;;;9.15;100.00;102063.16;5069557;28;20024;-44
2023/05/16 04:46:03;;;;;;;17.23;2.13;;;;;;;9.14;100.00;102058.78;5065920;28;20398;-44
2023/05/16 04:48:28;;;;;;;18.00;1.55;;;;;;;9.17;100.00;102067.41;5068644;28;20048;-44
2023/05/16 04:50:54;;;;;;;47.55;4.78;;;;;;;9.22;100.00;102069.66;5053238;28;20029;-47
2023/05/16 04:53:20;;;;;;;20.35;1.85;;;;;;;9.29;100.00;102069.94;5058930;28;20032;-47
2023/05/16 04:55:46;;;;;;;17.98;2.00;;;;;;;9.42;100.00;102073.16;5068344;28;20036;-42
2023/05/16 04:58:11;;;;;;;10.80;1.52;;;;;;;9.55;100.00;102073.69;5055019;28;20036;-42
2023/05/16 05:00:38;;;;;;;16.50;1.60;;;;;;;9.57;100.00;102089.69;5051811;28;20076;-44
2023/05/16 05:03:03;;;;;;;21.52;1.83;;;;;;;9.61;100.00;102093.75;5049531;28;20025;-42
2023/05/16 05:05:29;;;;;;;17.30;1.38;;;;;;;9.68;100.00;102084.97;5053122;28;20041;-44
2023/05/16 05:07:54;;;;;;;15.13;1.60;;;;;;;9.79;100.00;102089.31;5051470;28;20029;-47
2023/05/16 05:10:20;;;;;;;20.08;2.28;;;;;;;9.98;100.00;102098.31;5055558;28;20019;-44
2023/05/16 05:12:45;;;;;;;16.48;1.80;;;;;;;10.03;100.00;102096.03;5048925;28;20083;-45
2023/05/16 05:15:12;;;;;;;17.20;2.20;;;;;;;10.18;100.00;102094.56;5063900;28;20154;-43
2023/05/16 05:17:37;;;;;;;10.73;2.10;;;;;;;10.24;100.00;102091.31;5068997;28;20086;-44
2023/05/16 05:20:05;;;;;;;22.10;1.95;;;;;;;10.21;100.00;102090.72;5070059;28;20044;-42
2023/05/16 05:22:31;;;;;;;25.33;1.80;;;;;;;10.18;100.00;102097.25;5066661;28;20025;-44
2023/05/16 05:24:56;;;;;;;17.48;1.77;;;;;;;10.11;100.00;102098.88;5049960;28;20025;-45
2023/05/16 05:27:22;;;;;;;11.93;1.95;;;;;;;10.08;100.00;102100.00;5050158;28;20051;-45
2023/05/16 05:29:47;;;;;;;15.55;1.85;;;;;;;10.09;100.00;102106.22;5053512;28;20363;-43
2023/05/16 05:32:14;;;;;;;15.98;1.48;;;;;;;10.15;100.00;102102.09;5067252;28;20039;-46
2023/05/16 05:34:39;;;;;;;12.55;1.52;;;;;;;10.36;100.00;102101.88;5048697;28;20112;-42
2023/05/16 05:37:05;;;;;;;14.23;2.20;;;;;;;10.35;100.00;102103.75;5056218;28;20399;-43
2023/05/16 05:39:30;;;;;;;11.43;1.77;;;;;;;10.33;100.00;102111.09;5063220;28;20078;-43
2023/05/16 05:41:56;;;;;;;22.98;2.00;;;;;;;10.30;100.00;102108.72;5060204;28;20116;-44
2023/05/16 05:44:21;;;;;;;13.93;1.50;;;;;;;10.35;100.00;102110.94;5068634;28;20386;-44
2023/05/16 05:46:46;;;;;;;17.92;2.45;;;;;;;10.51;100.00;102103.09;5053398;28;20107;-45
2023/05/16 05:49:12;;;;;;;23.45;2.42;;;;;;;10.59;100.00;102102.34;5049943;28;20022;-46
2023/05/16 05:51:37;;;;;;;14.52;2.33;;;;;;;10.67;100.00;102114.03;5049867;28;20025;-46
2023/05/16 05:54:03;;;;;;;15.90;1.95;;;;;;;10.72;100.00;102118.97;5049521;28;20036;-43
2023/05/16 05:56:28;;;;;;;15.05;1.88;;;;;;;10.80;100.00;102126.28;5049367;28;20040;-44
2023/05/16 05:58:53;;;;;;;13.20;1.98;;;;;;;10.84;100.00;102122.28;5066238;28;20063;-47
2023/05/16 06:01:22;;;;;;;18.70;1.90;;;;;;;11.00;100.00;102117.06;5070214;28;20126;-48
2023/05/16 06:03:47;;;;;;;12.02;1.55;;;;;;;11.28;100.00;102119.69;5069464;28;20021;-45
2023/05/16 06:06:14;;;;;;;15.25;3.53;;;;;;;11.33;100.00;102125.44;5070264;28;20036;-43
2023/05/16 06:08:39;;;;;;;15.80;2.28;;;;;;;11.34;100.00;102132.53;5048997;28;20122;-47
2023/05/16 06:11:05;;;;;;;12.35;1.88;;;;;;;11.57;100.00;102128.34;5047623;28;20049;-45
2023/05/16 06:13:30;;;;;;;12.73;1.70;;;;;;;11.91;100.00;102129.44;5047941;28;20025;-44
2023/05/16 06:15:56;;;;;;;9.65;1.65;;;;;;;12.02;100.00;102130.00;5049238;28;20547;-46
2023/05/16 06:18:21;;;;;;;12.85;1.85;;;;;;;12.07;100.00;102126.84;5057449;28;20464;-45
2023/05/16 06:20:48;;;;;;;14.48;1.55;;;;;;;12.68;100.00;102138.41;5050909;28;20036;-44
2023/05/16 06:23:13;;;;;;;14.48;1.85;;;;;;;13.58;100.00;102133.13;5060260;28;20090;-45
2023/05/16 06:25:38;;;;;;;16.20;1.80;;;;;;;14.30;100.00;102126.88;5072918;28;20060;-45
2023/05/16 06:28:04;;;;;;;14.35;1.33;;;;;;;14.93;100.00;102134.06;5073661;28;20043;-43
2023/05/16 06:30:29;;;;;;;7.30;1.27;;;;;;;15.82;100.00;102134.34;5073094;28;20538;-44
2023/05/16 06:32:55;;;;;;;11.00;1.77;;;;;;;16.40;93.33;102132.72;5071625;28;20025;-45
2023/05/16 06:35:20;;;;;;;11.20;1.92;;;;;;;16.42;88.57;102133.34;5072499;28;20029;-42
2023/05/16 06:37:45;;;;;;;12.00;1.60;;;;;;;16.40;90.82;102130.00;5073278;28;20366;-44
2023/05/16 06:40:11;;;;;;;12.38;1.98;;;;;;;16.09;91.00;102140.19;5072930;28;20460;-46
2023/05/16 06:42:37;;;;;;;13.98;1.50;;;;;;;15.85;91.49;102131.28;5075850;28;20020;-43
2023/05/16 06:45:02;;;;;;;11.15;1.70;;;;;;;16.10;91.91;102133.75;5075221;28;20383;-47
2023/05/16 06:47:28;;;;;;;10.40;1.60;;;;;;;16.52;90.71;102135.78;5071671;28;20386;-44
2023/05/16 06:49:53;;;;;;;6.28;1.45;;;;;;;16.62;85.63;102146.34;5073058;28;20107;-44
2023/05/16 06:52:20;;;;;;;6.30;1.15;;;;;;;16.70;85.36;102142.69;5053571;28;20036;-44
2023/05/16 06:54:45;;;;;;;14.57;2.13;;;;;;;16.53;87.56;102147.47;5051319;28;20032;-42
2023/05/16 06:57:10;;;;;;;11.90;1.80;;;;;;;17.32;84.48;102147.56;5051176;28;20029;-47
2023/05/16 06:59:36;;;;;;;12.38;1.77;;;;;;;17.40;85.53;102149.31;5052654;28;20029;-45
2023/05/16 07:02:03;;;;;;;13.55;1.60;;;;;;;17.90;81.18;102156.44;5051471;28;20055;-44
2023/05/16 07:04:28;;;;;;;12.82;2.30;;;;;;;16.93;81.05;102157.00;5052389;28;20040;-43
2023/05/16 07:06:53;;;;;;;6.93;1.40;;;;;;;17.01;84.68;102151.44;5050960;28;20021;-45
2023/05/16 07:09:20;;;;;;;11.10;1.80;;;;;;;17.40;83.70;102152.03;5051526;28;20024;-43
2023/05/16 07:11:45;;;;;;;9.50;1.70;;;;;;;18.10;77.12;102151.13;5052558;28;20029;-42
2023/05/16 07:14:10;;;;;;;9.20;1.45;;;;;;;18.63;75.65;102156.03;5052413;28;20020;-45
2023/05/16 07:16:36;;;;;;;10.95;1.30;;;;;;;18.97;72.16;102157.00;5052234;28;20112;-43
2023/05/16 07:19:01;;;;;;;10.15;1.30;;;;;;;18.53;72.84;102161.84;5050567;28;20094;-46
2023/05/16 07:21:27;;;;;;;12.13;1.83;;;;;;;18.79;74.29;102160.31;5052158;28;20025;-45
2023/05/16 07:23:52;;;;;;;7.80;1.80;;;;;;;18.89;71.69;102160.78;5052602;28;20033;-44
2023/05/16 07:26:21;;;;;;;8.57;1.63;;;;;;;19.93;71.07;102168.47;5050897;28;20335;-44
2023/05/16 07:28:46;;;;;;;11.18;1.40;;;;;;;20.75;65.09;102163.44;5051517;28;20106;-45
2023/05/16 07:31:11;;;;;;;9.60;1.30;;;;;;;20.96;64.75;102165.00;5053717;28;20542;-43
2023/05/16 07:33:37;;;;;;;11.57;1.70;;;;;;;20.75;64.19;102168.06;5054292;28;20044;-44
2023/05/16 07:36:02;;;;;;;6.28;1.20;;;;;;;20.99;62.84;102167.31;5051083;28;20034;-44
2023/05/16 07:38:28;;;;;;;9.85;1.52;;;;;;;20.57;64.91;102174.25;5052889;28;20025;-42
2023/05/16 07:40:53;;;;;;;12.95;1.58;;;;;;;20.32;61.75;102166.69;5052529;28;20036;-43
2023/05/16 07:43:19;;;;;;;9.45;1.60;;;;;;;20.11;64.18;102170.53;5052352;28;20471;-42
2023/05/16 07:45:44;;;;;;;7.45;1.65;;;;;;;20.22;67.99;102165.47;5051920;28;20029;-45
2023/05/16 07:48:09;;;;;;;6.93;1.40;;;;;;;20.31;65.46;102170.50;5051800;28;20032;-42
2023/05/16 07:50:35;;;;;;;7.13;1.42;;;;;;;20.12;65.64;102176.84;5056835;28;20415;-45
2023/05/16 07:53:00;;;;;;;6.05;1.38;;;;;;;20.01;63.77;102177.47;5071602;28;20037;-45
2023/05/16 07:55:26;;;;;;;8.05;1.52;;;;;;;20.15;63.41;102177.25;5071086;28;20077;-46
2023/05/16 07:57:51;;;;;;;12.00;1.50;;;;;;;21.22;62.38;102172.22;5071376;28;20044;-46
2023/05/16 08:00:17;;;;;;;8.27;1.98;;;;;;;21.33;61.57;102178.03;5071332;28;20036;-43
2023/05/16 08:02:42;;;;;;;7.03;1.50;;;;;;;21.45;59.35;102182.59;5071287;28;20033;-43
2023/05/16 08:05:08;;;;;;;9.07;1.38;;;;;;;21.08;59.85;102181.56;5070705;28;20024;-42
2023/05/16 08:07:34;;;;;;;10.13;1.98;;;;;;;20.44;61.05;102188.75;5070498;28;20532;-43
2023/05/16 08:09:59;;;;;;;5.43;1.30;;;;;;;20.08;60.11;102186.53;5070480;28;20036;-46
2023/05/16 08:12:26;;;;;;;5.10;1.48;;;;;;;19.00;65.26;102195.63;5071606;28;20017;-46
2023/05/16 08:14:51;;;;;;;5.70;1.37;;;;;;;17.65;68.81;102191.41;5071355;28;20036;-43
2023/05/16 08:17:16;;;;;;;9.38;1.20;;;;;;;16.74;73.19;102193.75;5069017;28;20032;-44
2023/05/16 08:19:42;;;;;;;13.35;1.42;;;;;;;16.09;79.30;102184.50;5071515;28;20166;-47
2023/05/16 08:22:08;;;;;;;9.30;1.35;;;;;;;17.03;79.43;102189.31;5070169;28;20027;-43
2023/05/16 08:24:34;;;;;;;8.27;1.10;;;;;;;17.50;76.72;102193.38;5070319;28;20479;-44
2023/05/16 08:26:59;;;;;;;11.02;1.50;;;;;;;17.12;78.71;102190.91;5069809;28;20054;-43
2023/05/16 08:29:25;;;;;;;9.55;1.10;;;;;;;16.60;81.85;102189.19;5071091;28;20099;-44
2023/05/16 08:31:50;;;;;;;8.68;1.65;;;;;;;16.43;84.75;102191.28;5069734;28;20096;-46
2023/05/16 08:34:16;;;;;;;10.05;1.45;;;;;;;16.94;83.04;102190.47;5069774;28;20100;-45
2023/05/16 08:36:41;;;;;;;12.05;1.75;;;;;;;17.90;73.74;102188.28;5069462;28;20137;-44
2023/05/16 08:39:09;;;;;;;7.38;1.50;;;;;;;17.43;74.14;102192.44;5053056;28;20123;-42
2023/05/16 08:41:34;;;;;;;7.78;1.30;;;;;;;17.45;79.23;102190.38;5069724;28;20386;-41
2023/05/16 08:44:00;;;;;;;8.27;1.15;;;;;;;18.30;74.55;102192.16;5070973;28;20024;-44
2023/05/16 08:46:27;;;;;;;8.40;1.52;;;;;;;18.43;72.24;102191.34;5070785;28;20020;-41
2023/05/16 08:48:53;;;;;;;11.23;1.38;;;;;;;17.91;73.10;102176.38;5070804;28;20029;-45
2023/05/16 08:51:19;;;;;;;10.27;1.90;;;;;;;18.38;75.18;102188.44;5070885;28;20497;-44
2023/05/16 08:53:51;;;;;;;7.15;1.40;;;;;;;18.53;72.18;102185.53;5070797;28;20028;-47
2023/05/16 08:56:17;;;;;;;5.72;1.20;;;;;;;18.45;72.54;102192.00;5068494;28;20072;-47
2023/05/16 08:58:42;;;;;;;10.60;1.40;;;;;;;17.71;73.93;102196.06;5070553;28;20024;-47
2023/05/16 09:01:08;;;;;;;11.05;1.58;;;;;;;17.78;78.65;102190.69;5070365;28;20093;-43
2023/05/16 09:03:36;;;;;;;5.43;1.50;;;;;;;18.11;74.78;102196.41;5070295;28;20024;-43
2023/05/16 09:06:04;;;;;;;9.38;1.60;;;;;;;17.79;77.33;102197.84;5035694;28;20453;-45
2023/05/16 09:08:29;;;;;;;11.35;1.50;;;;;;;17.56;78.17;102214.34;5069284;28;20059;-46
2023/05/16 09:10:54;;;;;;;11.05;1.50;;;;;;;17.18;77.45;102208.31;5070588;28;20052;-45
2023/05/16 09:13:20;;;;;;;10.05;1.70;;;;;;;17.64;77.83;102211.53;5068792;28;20119;-45
2023/05/16 09:15:45;;;;;;;11.02;1.58;;;;;;;17.33;80.18;102215.41;5069598;28;20033;-42
2023/05/16 09:18:12;;;;;;;12.45;1.65;;;;;;;17.86;77.56;102215.09;5068896;28;20097;-45
2023/05/16 09:20:45;;;;;;;6.53;1.35;;;;;;;18.89;74.50;102218.06;5069769;28;20100;-44
2023/05/16 09:23:10;;;;;;;7.10;1.25;;;;;;;20.07;71.67;102213.00;5070362;28;20024;-42
2023/05/16 09:25:36;;;;;;;5.20;1.45;;;;;;;21.46;62.26;102210.84;5068992;28;20154;-42
2023/05/16 09:28:01;;;;;;;10.73;1.73;;;;;;;21.92;58.55;102215.13;5070680;28;20024;-45
2023/05/16 09:30:29;;;;;;;10.70;1.52;;;;;;;21.68;59.02;102214.88;5069069;28;20112;-45
2023/05/16 09:32:54;;;;;;;6.22;1.63;;;;;;;21.42;58.29;102212.34;5069922;28;20035;-42
2023/05/16 09:35:20;;;;;;;8.85;1.40;;;;;;;20.67;62.48;102212.91;5068805;28;20399;-42
2023/05/16 09:37:47;;;;;;;10.00;1.77;;;;;;;20.87;62.93;102222.94;5068909;28;20070;-44
2023/05/16 09:40:13;;;;;;;7.47;1.50;;;;;;;20.44;63.58;102215.28;5070294;28;20107;-42
2023/05/16 09:42:39;;;;;;;8.82;1.48;;;;;;;20.80;62.13;102221.06;5070159;28;20032;-44
2023/05/16 09:45:05;;;;;;;10.60;1.45;;;;;;;20.52;61.71;102212.31;5069659;28;20032;-44
2023/05/16 09:47:30;;;;;;;9.10;1.80;;;;;;;20.03;63.08;102216.38;5070083;28;20090;-44
2023/05/16 09:49:56;;;;;;;5.97;1.10;;;;;;;19.40;65.01;102222.19;5068862;28;20029;-45
2023/05/16 09:52:21;;;;;;;8.32;1.30;;;;;;;18.62;68.46;102226.09;5070044;28;20440;-44
2023/05/16 09:54:50;;;;;;;5.95;1.38;;;;;;;18.43;70.30;102221.34;5070616;28;20028;-47
2023/05/16 09:57:20;;;;;;;4.88;1.27;;;;;;;19.66;64.45;102216.78;5072434;28;20112;-47
2023/05/16 09:59:46;;;;;;;5.72;1.30;;;;;;;20.63;60.72;102222.59;5073427;28;20461;-49
2023/05/16 10:02:12;;;;;;;6.15;1.73;;;;;;;20.61;62.24;102219.22;5074601;28;20052;-45
2023/05/16 10:04:37;;;;;;;9.20;1.23;;;;;;;20.81;62.63;102230.13;5073951;28;20033;-44
2023/05/16 10:07:03;;;;;;;4.22;1.00;;;;;;;20.62;59.93;102220.94;5073696;28;20028;-45
2023/05/16 10:09:32;;;;;;;5.05;1.50;;;;;;;20.61;59.84;102221.97;5072518;28;20024;-41
2023/05/16 10:12:02;;;;;;;10.05;1.30;;;;;;;20.14;65.19;102223.94;5072475;28;20023;-44
2023/05/16 10:14:27;;;;;;;6.13;1.25;;;;;;;20.67;60.82;102221.13;5073765;28;20020;-48
2023/05/16 10:16:52;;;;;;;12.23;1.77;;;;;;;20.38;60.94;102220.53;5073740;28;20028;-43
2023/05/16 10:19:20;;;;;;;7.22;1.50;;;;;;;19.96;62.59;102221.88;5073629;28;20560;-46
2023/05/16 10:21:48;;;;;;;;;;;;;;;19.52;64.61;102232.28;5073325;28;20146;-44
2023/05/16 10:24:17;;;;;;;9.20;1.50;;;;;;;19.81;65.75;102222.06;5072816;28;19920;-42
2023/05/16 10:26:42;;;;;;;8.63;1.08;;;;;;;20.45;62.65;102225.16;5072030;28;20478;-45
2023/05/16 10:29:08;;;;;;;11.23;1.77;;;;;;;21.02;60.16;102228.97;5073140;28;20032;-44
2023/05/16 10:31:33;;;;;;;8.85;1.40;;;;;;;20.75;59.91;102215.41;5073278;28;20059;-42
2023/05/16 10:33:59;;;;;;;8.50;1.70;;;;;;;20.65;60.54;102225.97;5072964;28;20501;-45
2023/05/16 10:36:24;;;;;;;10.18;1.50;;;;;;;20.17;61.85;102223.53;5071651;28;20108;-42
2023/05/16 10:38:51;;;;;;;4.88;1.30;;;;;;;20.72;61.61;102215.84;5072945;28;20036;-42
2023/05/16 10:41:17;;;;;;;3.92;0.93;;;;;;;21.19;54.44;102201.91;5072969;28;20103;-43
2023/05/16 10:43:56;;;;;;;4.30;1.00;;;;;;;21.02;53.19;102210.66;5071534;28;20104;-48
2023/05/16 10:46:22;;;;;;;6.07;1.48;;;;;;;21.87;53.30;102217.69;5072471;28;20063;-44
2023/05/16 10:48:48;;;;;;;6.55;1.23;;;;;;;22.26;52.42;102215.69;5071004;28;20029;-41
2023/05/16 10:51:36;;;;;;;6.93;1.38;;;;;;;21.73;55.01;102211.50;5072917;28;20028;-43
2023/05/16 10:54:09;;;;;;;5.05;1.13;;;;;;;21.22;56.93;102212.44;5071878;28;20135;-44
2023/05/16 10:56:35;;;;;;;4.30;1.20;;;;;;;21.59;54.82;102208.03;5073163;28;20033;-45
2023/05/16 10:59:01;;;;;;;6.55;1.27;;;;;;;22.63;50.92;102221.19;5072413;28;20066;-45
2023/05/16 11:01:28;;;;;;;13.73;2.25;;;;;;;22.13;55.62;102211.97;5073019;28;20048;-44
2023/05/16 11:04:03;;;;;;;8.45;1.20;;;;;;;22.23;53.09;102208.75;5071655;28;20032;-44
2023/05/16 11:06:40;;;;;;;8.80;1.65;;;;;;;22.19;52.63;102209.41;5072807;28;20024;-43
2023/05/16 11:09:26;;;;;;;7.20;1.50;;;;;;;22.72;52.70;102208.81;5072930;28;20024;-43
2023/05/16 11:11:56;;;;;;;5.85;1.40;;;;;;;22.21;56.89;102212.78;5072838;28;20032;-44
2023/05/16 11:14:33;;;;;;;5.15;1.33;;;;;;;21.94;54.57;102202.03;5072690;28;20116;-45
2023/05/16 11:17:02;;;;;;;;;;;;;;;22.10;55.13;102204.19;5071476;28;20048;-44